Bartlettsville, Indiana
Current Conditions -  °F | °C
As of 2:53 AM on Wednesday 26 Nov 2014 (Local Time) from KBMG Reporting Station
Overcast Overcast  
Wind Chill: -3°   Ceiling: 1100
Heat Index: -3°   Visibility: 10mi
Dew Point: -5°   Wind: 0mph
Humidity: 85%   Direction: NA
Pressure: 30.15"   Gusts: NA
Location:  38.8737°N, 86.4563°W
Report Text: KBMG 260753Z 00000KT 10SM OVC011 M03/M05 A3015 RMK AO2 SLP217 T10281050
Loading
Personal Weather Stations






























Interactive Weather Map New forecast layout! Learn more

10-Day Weather Forecast

Advertisements
Track Severe Weather on mobile